Time;durP1;ratioP1;P1;durP2;ratioP2;P2;SDS_P1;SDS_P2;PMS_P1;PMS_P2;Temp;Humidity;BMP_temperature;BMP_pressure;BME280_temperature;BME280_humidity;BME280_pressure;Samples;Min_cycle;Max_cycle;Signal;HPM_P1;HPM_P2
2022/03/26 00:00:21;;;;;;;113.33;61.63;;;7.70;99.90;;;;;;4942592;28;20188;-75
2022/03/26 00:02:47;;;;;;;114.80;61.80;;;7.70;99.90;;;;;;4932253;28;20182;-75
2022/03/26 00:05:13;;;;;;;116.67;62.97;;;7.60;99.90;;;;;;4938004;28;20201;-75
2022/03/26 00:07:39;;;;;;;114.60;61.47;;;7.60;99.90;;;;;;4963418;28;20179;-75
2022/03/26 00:10:06;;;;;;;116.93;64.60;;;7.60;99.90;;;;;;4965290;28;20182;-72
2022/03/26 00:12:32;;;;;;;114.97;63.40;;;7.60;99.90;;;;;;4953494;28;20177;-73
2022/03/26 00:14:58;;;;;;;114.80;60.83;;;7.60;99.90;;;;;;4966071;28;20184;-72
2022/03/26 00:17:25;;;;;;;116.47;62.17;;;7.60;99.90;;;;;;4943026;28;20620;-71
2022/03/26 00:19:51;;;;;;;118.73;65.23;;;7.60;99.90;;;;;;4962002;28;20572;-73
2022/03/26 00:22:17;;;;;;;111.87;61.43;;;7.50;99.90;;;;;;4944959;28;20180;-73
2022/03/26 00:24:42;;;;;;;116.53;62.60;;;7.50;99.90;;;;;;4941109;28;20212;-74
2022/03/26 00:27:08;;;;;;;126.87;66.00;;;7.50;99.90;;;;;;4928856;28;20641;-74
2022/03/26 00:29:34;;;;;;;125.07;65.87;;;7.50;99.90;;;;;;4933869;28;20199;-73
2022/03/26 00:31:59;;;;;;;133.37;65.17;;;7.40;99.90;;;;;;4944155;28;20170;-74
2022/03/26 00:34:25;;;;;;;130.63;68.90;;;7.30;99.90;;;;;;4947669;28;20173;-74
2022/03/26 00:36:50;;;;;;;133.90;69.63;;;7.20;99.90;;;;;;4927424;28;20183;-74
2022/03/26 00:39:16;;;;;;;134.07;69.37;;;7.10;99.90;;;;;;4949268;28;20200;-73
2022/03/26 00:41:42;;;;;;;139.87;68.90;;;7.00;99.90;;;;;;4947433;28;20184;-74
2022/03/26 00:44:07;;;;;;;125.60;68.20;;;6.90;99.90;;;;;;4932445;28;20184;-74
2022/03/26 00:46:33;;;;;;;127.50;67.57;;;6.90;99.90;;;;;;4931796;28;20211;-73
2022/03/26 00:48:59;;;;;;;121.90;65.67;;;6.80;99.90;;;;;;4945996;28;20676;-73
2022/03/26 00:51:26;;;;;;;126.70;66.70;;;6.90;99.90;;;;;;4932206;28;20172;-73
2022/03/26 00:53:51;;;;;;;131.20;66.93;;;6.90;99.90;;;;;;4923026;28;20172;-73
2022/03/26 00:56:17;;;;;;;131.10;66.97;;;6.90;99.90;;;;;;4951312;28;20188;-74
2022/03/26 00:58:43;;;;;;;125.27;68.03;;;6.90;99.90;;;;;;4945002;28;20277;-74
2022/03/26 01:01:11;;;;;;;126.23;67.17;;;6.80;99.90;;;;;;4926037;28;20180;-74
2022/03/26 01:03:37;;;;;;;122.67;64.03;;;6.70;99.90;;;;;;4945033;28;20787;-74
2022/03/26 01:06:04;;;;;;;128.90;67.90;;;6.70;99.90;;;;;;4939458;28;20212;-73
2022/03/26 01:08:30;;;;;;;125.67;68.27;;;6.60;99.90;;;;;;4945778;28;20199;-74
2022/03/26 01:10:56;;;;;;;128.67;65.93;;;6.50;99.90;;;;;;4934396;28;20275;-74
2022/03/26 01:13:25;;;;;;;129.37;69.63;;;6.50;99.90;;;;;;4931719;28;20271;-74
2022/03/26 01:15:51;;;;;;;122.63;67.53;;;6.50;99.90;;;;;;4945860;28;20288;-73
2022/03/26 01:18:17;;;;;;;127.07;67.13;;;6.40;99.90;;;;;;4946708;28;20199;-74
2022/03/26 01:20:43;;;;;;;129.07;68.33;;;6.40;99.90;;;;;;4945405;28;20180;-72
2022/03/26 01:23:09;;;;;;;129.53;67.93;;;6.40;99.90;;;;;;4935089;28;20204;-72
2022/03/26 01:25:35;;;;;;;118.10;63.50;;;6.50;99.90;;;;;;4935494;28;20310;-73
2022/03/26 01:28:01;;;;;;;121.77;65.63;;;6.50;99.90;;;;;;4949593;28;20200;-74
2022/03/26 01:30:28;;;;;;;122.17;64.70;;;6.50;99.90;;;;;;4950229;28;20264;-73
2022/03/26 01:32:55;;;;;;;124.60;65.37;;;6.50;99.90;;;;;;4951466;28;20180;-73
2022/03/26 01:35:21;;;;;;;125.73;65.47;;;6.40;99.90;;;;;;4952006;28;20263;-73
2022/03/26 01:37:47;;;;;;;119.60;64.90;;;6.40;99.90;;;;;;4952826;28;20180;-73
2022/03/26 01:40:14;;;;;;;124.93;68.13;;;6.40;99.90;;;;;;4949338;28;20187;-73
2022/03/26 01:42:41;;;;;;;126.07;64.53;;;6.40;99.90;;;;;;4953005;28;20186;-74
2022/03/26 01:45:11;;;;;;;122.90;63.93;;;6.50;99.90;;;;;;4951152;28;20200;-75
2022/03/26 01:47:36;;;;;;;122.73;62.63;;;6.50;99.90;;;;;;4932160;28;20247;-75
2022/03/26 01:50:03;;;;;;;125.37;66.67;;;6.50;99.90;;;;;;4934067;28;20256;-75
2022/03/26 01:52:29;;;;;;;119.43;65.40;;;6.60;99.90;;;;;;4934715;28;20268;-76
2022/03/26 01:54:54;;;;;;;111.17;60.57;;;6.50;99.90;;;;;;4950735;28;20267;-75
2022/03/26 01:57:21;;;;;;;115.97;61.03;;;6.50;99.90;;;;;;4943403;28;20248;-75
2022/03/26 01:59:46;;;;;;;117.90;62.60;;;6.40;99.90;;;;;;4934478;28;20296;-75
2022/03/26 02:02:12;;;;;;;127.73;65.30;;;6.40;99.90;;;;;;4948884;28;20263;-75
2022/03/26 02:04:38;;;;;;;118.37;62.17;;;6.30;99.90;;;;;;4927570;28;20231;-76
2022/03/26 02:07:04;;;;;;;113.73;61.37;;;6.30;99.90;;;;;;4929172;28;20559;-74
2022/03/26 02:09:35;;;;;;;116.33;61.87;;;6.20;99.90;;;;;;4949146;28;20305;-76
2022/03/26 02:12:02;;;;;;;113.20;60.03;;;6.20;99.90;;;;;;4945891;28;20239;-73
2022/03/26 02:14:28;;;;;;;110.20;59.10;;;6.20;99.90;;;;;;4943882;28;20195;-74
2022/03/26 02:16:54;;;;;;;120.57;62.40;;;6.20;99.90;;;;;;4955227;28;20591;-74
2022/03/26 02:19:20;;;;;;;111.37;58.53;;;6.20;99.90;;;;;;4955039;28;20196;-73
2022/03/26 02:21:49;;;;;;;114.10;61.30;;;6.20;99.90;;;;;;4955007;28;20208;-73
2022/03/26 02:24:15;;;;;;;120.67;64.13;;;6.20;99.90;;;;;;4955277;28;20266;-74
2022/03/26 02:26:41;;;;;;;111.23;60.83;;;6.20;99.90;;;;;;4955118;28;20212;-73
2022/03/26 02:29:09;;;;;;;111.90;60.63;;;6.30;99.90;;;;;;4955074;28;20222;-73
2022/03/26 02:31:36;;;;;;;116.77;61.87;;;6.30;99.90;;;;;;4955278;28;20632;-76
2022/03/26 02:34:03;;;;;;;109.77;58.80;;;6.30;99.90;;;;;;4946023;28;20651;-74
2022/03/26 02:36:28;;;;;;;115.43;60.57;;;6.40;99.90;;;;;;4929963;28;20272;-73
2022/03/26 02:38:54;;;;;;;113.10;59.27;;;6.40;99.90;;;;;;4950052;28;20352;-74
2022/03/26 02:41:20;;;;;;;107.00;58.03;;;6.30;99.90;;;;;;4949931;28;20181;-73
2022/03/26 02:43:45;;;;;;;111.63;58.67;;;6.30;99.90;;;;;;4945378;29;20173;-73
2022/03/26 02:46:11;;;;;;;106.47;57.87;;;6.30;99.90;;;;;;4940933;29;20234;-75
2022/03/26 02:48:39;;;;;;;113.37;57.13;;;6.30;99.90;;;;;;4945982;29;20189;-73
2022/03/26 02:51:05;;;;;;;109.57;56.70;;;6.30;99.90;;;;;;4942168;28;20223;-77
2022/03/26 02:53:31;;;;;;;104.23;56.83;;;6.30;99.90;;;;;;4944096;28;20219;-75
2022/03/26 02:55:57;;;;;;;106.67;59.83;;;6.30;99.90;;;;;;4955056;28;20266;-73
2022/03/26 02:58:23;;;;;;;110.13;58.37;;;6.30;99.90;;;;;;4945374;28;20751;-73
2022/03/26 03:00:48;;;;;;;110.03;58.90;;;6.30;99.90;;;;;;4927631;28;20639;-73
2022/03/26 03:03:15;;;;;;;114.40;58.10;;;6.30;99.90;;;;;;4927329;28;20186;-73
2022/03/26 03:05:41;;;;;;;108.83;58.77;;;6.20;99.90;;;;;;4927114;28;20259;-73
2022/03/26 03:08:06;;;;;;;111.77;58.47;;;6.20;99.90;;;;;;4928757;28;20201;-73
2022/03/26 03:10:32;;;;;;;107.10;59.50;;;6.20;99.90;;;;;;4944280;28;20198;-73
2022/03/26 03:12:59;;;;;;;114.00;58.60;;;6.20;99.90;;;;;;4933660;28;20620;-76
2022/03/26 03:15:25;;;;;;;110.37;59.13;;;6.10;99.90;;;;;;4931923;28;20521;-73
2022/03/26 03:17:51;;;;;;;109.20;57.07;;;6.10;99.90;;;;;;4947623;28;20691;-74
2022/03/26 03:20:17;;;;;;;105.20;56.87;;;6.10;99.90;;;;;;4949693;28;20176;-73
2022/03/26 03:22:43;;;;;;;110.47;57.20;;;6.20;99.90;;;;;;4930642;28;20172;-73
2022/03/26 03:25:10;;;;;;;111.80;59.87;;;6.10;99.90;;;;;;4938035;28;20688;-73
2022/03/26 03:27:37;;;;;;;104.50;56.07;;;6.20;99.90;;;;;;4957872;28;20263;-73
2022/03/26 03:30:04;;;;;;;114.93;59.80;;;6.20;99.90;;;;;;4952360;28;20711;-74
2022/03/26 03:32:30;;;;;;;116.93;61.00;;;6.10;99.90;;;;;;4947116;28;20178;-74
2022/03/26 03:34:56;;;;;;;111.83;58.70;;;6.10;99.90;;;;;;4932916;28;20251;-73
2022/03/26 03:37:23;;;;;;;111.73;57.97;;;6.10;99.90;;;;;;4932685;28;20164;-73
2022/03/26 03:39:49;;;;;;;109.40;58.53;;;6.10;99.90;;;;;;4947879;28;20565;-74
2022/03/26 03:42:15;;;;;;;124.00;64.83;;;6.10;99.90;;;;;;4946728;28;20644;-73
2022/03/26 03:44:40;;;;;;;115.53;61.10;;;6.00;99.90;;;;;;4948220;28;20183;-73
2022/03/26 03:47:06;;;;;;;117.37;61.77;;;5.90;99.90;;;;;;4931502;28;20312;-73
2022/03/26 03:49:32;;;;;;;119.97;59.83;;;5.90;99.90;;;;;;4949060;28;20196;-73
2022/03/26 03:51:59;;;;;;;118.13;60.57;;;5.90;99.90;;;;;;4946960;28;20176;-73
2022/03/26 03:54:25;;;;;;;121.83;61.10;;;5.80;99.90;;;;;;4948017;28;20339;-73
2022/03/26 03:56:52;;;;;;;116.97;58.10;;;5.70;99.90;;;;;;4932363;28;20195;-73
2022/03/26 03:59:17;;;;;;;118.23;60.97;;;5.70;99.90;;;;;;4945682;28;20211;-73
2022/03/26 04:01:43;;;;;;;110.90;58.67;;;5.70;99.90;;;;;;4947587;28;20176;-72
2022/03/26 04:04:09;;;;;;;116.33;59.27;;;5.80;99.90;;;;;;4930362;29;20180;-75
2022/03/26 04:06:35;;;;;;;111.77;59.87;;;5.70;99.90;;;;;;4932915;28;20584;-73
2022/03/26 04:09:01;;;;;;;107.90;57.30;;;5.80;99.90;;;;;;4951166;28;20238;-73
2022/03/26 04:11:26;;;;;;;111.37;58.00;;;5.80;99.90;;;;;;4941043;28;20264;-74
2022/03/26 04:13:53;;;;;;;112.33;59.43;;;5.80;99.90;;;;;;4940027;28;20240;-73
2022/03/26 04:16:22;;;;;;;113.53;58.00;;;5.80;99.90;;;;;;4935530;28;20180;-72
2022/03/26 04:18:48;;;;;;;120.77;59.87;;;5.80;99.90;;;;;;4945949;28;20207;-73
2022/03/26 04:21:15;;;;;;;116.20;62.00;;;5.70;99.90;;;;;;4950755;28;20184;-74
2022/03/26 04:23:41;;;;;;;116.47;61.97;;;5.70;99.90;;;;;;4938001;28;20267;-72
2022/03/26 04:26:08;;;;;;;122.27;61.67;;;5.70;99.90;;;;;;4938988;28;20207;-73
2022/03/26 04:28:34;;;;;;;117.90;58.70;;;5.70;99.90;;;;;;4939770;28;20740;-74
2022/03/26 04:31:00;;;;;;;113.13;60.17;;;5.70;99.90;;;;;;4955736;28;20183;-74
2022/03/26 04:33:25;;;;;;;121.30;61.67;;;5.70;99.90;;;;;;4939206;28;20164;-74
2022/03/26 04:35:51;;;;;;;121.30;63.57;;;5.70;99.90;;;;;;4940863;28;20218;-73
2022/03/26 04:38:17;;;;;;;130.03;64.37;;;5.60;99.90;;;;;;4941017;28;20196;-74
2022/03/26 04:40:43;;;;;;;118.10;62.67;;;5.60;99.90;;;;;;4938389;28;20217;-74
2022/03/26 04:43:08;;;;;;;124.50;62.10;;;5.60;99.90;;;;;;4938208;28;20197;-75
2022/03/26 04:45:34;;;;;;;123.07;63.37;;;5.60;99.90;;;;;;4954722;28;20266;-73
2022/03/26 04:48:00;;;;;;;120.23;63.17;;;5.70;99.90;;;;;;4939549;28;20254;-73
2022/03/26 04:50:26;;;;;;;124.50;61.97;;;5.70;99.90;;;;;;4935767;28;20207;-73
2022/03/26 04:52:52;;;;;;;121.20;62.53;;;5.60;99.90;;;;;;4954006;28;20199;-74
2022/03/26 04:55:19;;;;;;;119.97;61.13;;;5.50;99.90;;;;;;4937053;28;20283;-74
2022/03/26 04:57:48;;;;;;;123.30;64.47;;;5.60;99.90;;;;;;4954615;28;20712;-75
2022/03/26 05:00:16;;;;;;;124.20;65.57;;;5.50;99.90;;;;;;4955287;28;20239;-75
2022/03/26 05:02:42;;;;;;;135.17;68.73;;;5.60;99.90;;;;;;4942916;29;20177;-73
2022/03/26 05:05:10;;;;;;;128.90;65.53;;;5.50;99.90;;;;;;4937221;29;20239;-73
2022/03/26 05:07:45;;;;;;;125.83;66.07;;;5.40;99.90;;;;;;4936995;29;20172;-73
2022/03/26 05:10:23;;;;;;;131.03;66.30;;;5.40;99.90;;;;;;4932013;28;20200;-74
2022/03/26 05:12:50;;;;;;;135.27;68.33;;;5.40;99.90;;;;;;4932303;28;20617;-76
2022/03/26 05:15:18;;;;;;;137.33;68.60;;;5.40;99.90;;;;;;4948071;28;20184;-74
2022/03/26 05:17:44;;;;;;;136.77;70.40;;;5.50;99.90;;;;;;4929149;28;20191;-73
2022/03/26 05:20:12;;;;;;;139.40;70.07;;;5.50;99.90;;;;;;4931858;28;20194;-73
2022/03/26 05:22:39;;;;;;;132.17;68.10;;;5.50;99.90;;;;;;4929469;28;20212;-76
2022/03/26 05:25:05;;;;;;;138.40;69.53;;;5.50;99.90;;;;;;4934316;28;20275;-75
2022/03/26 05:27:31;;;;;;;146.67;73.10;;;5.50;99.90;;;;;;4947342;28;20605;-74
2022/03/26 05:29:56;;;;;;;137.97;71.93;;;5.50;99.90;;;;;;4951343;28;20191;-73
2022/03/26 05:32:22;;;;;;;144.10;73.27;;;5.50;99.90;;;;;;4933376;28;20181;-74
2022/03/26 05:34:48;;;;;;;141.83;72.30;;;5.50;99.90;;;;;;4944624;28;20187;-75
2022/03/26 05:37:13;;;;;;;135.30;72.10;;;5.60;99.90;;;;;;4947544;28;20185;-76
2022/03/26 05:39:39;;;;;;;136.63;70.43;;;5.50;99.90;;;;;;4945644;29;20655;-74
2022/03/26 05:42:06;;;;;;;148.80;73.90;;;5.50;99.90;;;;;;4944278;28;20184;-74
2022/03/26 05:44:31;;;;;;;155.77;77.20;;;5.50;99.90;;;;;;4944347;29;20181;-73
2022/03/26 05:46:57;;;;;;;139.13;69.97;;;5.50;99.90;;;;;;4946075;28;20206;-73
2022/03/26 05:49:24;;;;;;;146.33;74.93;;;5.50;99.90;;;;;;4944887;28;20192;-74
2022/03/26 05:51:50;;;;;;;147.93;75.83;;;5.50;99.90;;;;;;4931806;28;20181;-74
2022/03/26 05:54:15;;;;;;;149.27;75.57;;;5.50;99.90;;;;;;4932902;29;20252;-73
2022/03/26 05:56:51;;;;;;;147.30;75.70;;;5.50;99.90;;;;;;4927793;28;20512;-74
2022/03/26 05:59:21;;;;;;;145.27;73.07;;;5.50;99.90;;;;;;4921889;29;20215;-74
2022/03/26 06:01:48;;;;;;;146.83;75.10;;;5.60;99.90;;;;;;4947278;28;20190;-73
2022/03/26 06:04:14;;;;;;;144.80;74.27;;;5.60;99.90;;;;;;4955698;28;20581;-75
2022/03/26 06:06:41;;;;;;;141.97;74.40;;;5.70;99.90;;;;;;4939531;28;20251;-74
2022/03/26 06:09:07;;;;;;;142.20;74.03;;;5.80;99.90;;;;;;4938742;28;20508;-74
2022/03/26 06:11:33;;;;;;;145.93;73.03;;;5.80;99.90;;;;;;4920864;29;20185;-73
2022/03/26 06:13:59;;;;;;;143.87;75.80;;;5.90;99.90;;;;;;4924669;28;20183;-73
2022/03/26 06:16:24;;;;;;;146.77;72.53;;;5.90;99.90;;;;;;4944534;28;20706;-74
2022/03/26 06:18:50;;;;;;;142.03;74.77;;;6.00;99.90;;;;;;4944690;28;20738;-74
2022/03/26 06:21:16;;;;;;;139.17;71.67;;;6.10;99.90;;;;;;4955488;28;20271;-74
2022/03/26 06:23:42;;;;;;;146.50;75.40;;;6.10;99.90;;;;;;4949939;28;20177;-74
2022/03/26 06:26:07;;;;;;;142.03;72.20;;;6.20;99.90;;;;;;4923469;29;20200;-75
2022/03/26 06:28:34;;;;;;;139.53;73.27;;;6.20;99.90;;;;;;4935917;29;20204;-76
2022/03/26 06:30:59;;;;;;;137.27;71.67;;;6.30;99.90;;;;;;4923045;28;20180;-80
2022/03/26 06:33:27;;;;;;;133.93;69.90;;;6.40;99.90;;;;;;4943606;28;20187;-74
2022/03/26 06:35:52;;;;;;;139.57;71.27;;;6.60;99.90;;;;;;4952315;28;20199;-74
2022/03/26 06:38:31;;;;;;;136.80;71.43;;;6.60;99.90;;;;;;4940519;28;20200;-72
2022/03/26 06:40:58;;;;;;;138.87;70.43;;;6.60;99.90;;;;;;4928306;28;20539;-75
2022/03/26 06:43:24;;;;;;;140.20;73.57;;;6.70;99.90;;;;;;4932404;28;20189;-77
2022/03/26 06:45:50;;;;;;;140.80;73.40;;;6.80;99.90;;;;;;4929963;28;20204;-77
2022/03/26 06:48:16;;;;;;;134.47;70.97;;;6.90;99.90;;;;;;4950508;28;20197;-80
2022/03/26 06:50:42;;;;;;;138.07;73.03;;;7.00;99.90;;;;;;4952013;28;20216;-79
2022/03/26 06:53:08;;;;;;;145.87;73.37;;;7.00;99.90;;;;;;4935617;28;20179;-79
2022/03/26 06:55:34;;;;;;;140.43;73.60;;;7.00;99.90;;;;;;4947986;28;20173;-79
2022/03/26 06:58:00;;;;;;;147.10;75.33;;;7.00;99.90;;;;;;4948755;28;20219;-79
2022/03/26 07:00:25;;;;;;;138.87;73.67;;;7.00;99.90;;;;;;4948773;28;20282;-78
2022/03/26 07:02:51;;;;;;;139.57;73.03;;;7.10;99.90;;;;;;4945940;28;20645;-80
2022/03/26 07:05:17;;;;;;;138.83;72.17;;;7.10;99.90;;;;;;4950613;28;20216;-78
2022/03/26 07:07:42;;;;;;;134.73;72.07;;;7.30;99.90;;;;;;4951796;28;20184;-76
2022/03/26 07:10:09;;;;;;;130.47;69.03;;;7.30;99.90;;;;;;4959195;28;20273;-76
2022/03/26 07:12:37;;;;;;;131.77;68.73;;;7.40;99.90;;;;;;4960742;28;20193;-80
2022/03/26 07:15:07;;;;;;;133.87;71.17;;;7.30;99.90;;;;;;4962904;28;20187;-76
2022/03/26 07:17:33;;;;;;;140.73;72.70;;;7.40;99.90;;;;;;4932479;28;20191;-77
2022/03/26 07:19:59;;;;;;;135.47;72.47;;;7.50;99.90;;;;;;4944564;28;20270;-75
2022/03/26 07:22:24;;;;;;;137.20;72.33;;;7.50;99.90;;;;;;4954051;28;20182;-74
2022/03/26 07:24:50;;;;;;;130.93;71.07;;;7.60;99.90;;;;;;4933494;29;20200;-74
2022/03/26 07:27:15;;;;;;;132.83;71.27;;;7.50;99.90;;;;;;4932300;28;20309;-74
2022/03/26 07:29:41;;;;;;;129.47;71.90;;;7.50;99.90;;;;;;4969003;28;20235;-74
2022/03/26 07:32:08;;;;;;;134.23;71.47;;;7.50;99.90;;;;;;4936685;28;20177;-75
2022/03/26 07:34:34;;;;;;;126.63;67.67;;;7.60;99.90;;;;;;4927028;28;20181;-77
2022/03/26 07:37:00;;;;;;;125.90;64.80;;;7.80;99.90;;;;;;4955248;28;20176;-75
2022/03/26 07:39:27;;;;;;;119.30;66.47;;;7.90;99.90;;;;;;4947642;29;20205;-75
2022/03/26 07:41:53;;;;;;;83.67;48.13;;;8.10;99.90;;;;;;4939726;28;20182;-75
2022/03/26 07:44:18;;;;;;;83.63;48.90;;;8.30;99.90;;;;;;4950064;28;20632;-76
2022/03/26 07:46:44;;;;;;;83.30;45.50;;;8.50;99.90;;;;;;4952739;28;20298;-77
2022/03/26 07:49:10;;;;;;;74.57;42.83;;;8.70;99.90;;;;;;4925704;28;20207;-79
2022/03/26 07:51:35;;;;;;;74.00;43.70;;;8.90;99.90;;;;;;4950847;28;20200;-77
2022/03/26 07:54:01;;;;;;;74.73;41.47;;;9.10;99.90;;;;;;4958133;28;20179;-73
2022/03/26 07:56:35;;;;;;;68.73;41.90;;;9.30;99.90;;;;;;4958820;28;20233;-77
2022/03/26 07:59:00;;;;;;;64.70;35.50;;;9.50;99.90;;;;;;4954510;29;20260;-76
2022/03/26 08:01:30;;;;;;;63.43;39.23;;;9.60;99.90;;;;;;4942119;28;20235;-77
2022/03/26 08:03:55;;;;;;;67.20;39.27;;;9.70;99.90;;;;;;4957301;28;20271;-74
2022/03/26 08:06:22;;;;;;;60.03;38.17;;;9.90;99.90;;;;;;4969543;23;20311;-75
2022/03/26 08:08:48;;;;;;;62.27;37.63;;;10.20;99.90;;;;;;4930885;28;20171;-75
2022/03/26 08:11:13;;;;;;;54.97;35.03;;;10.30;99.90;;;;;;4929922;28;20180;-75
2022/03/26 08:13:39;;;;;;;55.03;35.53;;;10.50;99.90;;;;;;4946031;28;20214;-76
2022/03/26 08:16:07;;;;;;;54.17;34.80;;;10.60;99.90;;;;;;4926084;29;20207;-75
2022/03/26 08:18:33;;;;;;;54.93;33.33;;;10.70;99.90;;;;;;4920272;28;20222;-77
2022/03/26 08:20:59;;;;;;;49.90;30.37;;;10.70;99.90;;;;;;4931942;28;20191;-76
2022/03/26 08:23:24;;;;;;;47.67;29.10;;;10.70;99.90;;;;;;4932857;29;20237;-76
2022/03/26 08:28:34;;;;;;;44.17;28.77;;;10.90;99.90;;;;;;4940943;28;20237;-75
2022/03/26 08:31:00;;;;;;;42.70;25.87;;;11.00;99.90;;;;;;4941173;28;20357;-73
2022/03/26 08:33:25;;;;;;;41.30;26.60;;;11.20;99.90;;;;;;4937399;29;20183;-73
2022/03/26 08:35:51;;;;;;;39.63;25.60;;;11.40;99.90;;;;;;4918935;29;20204;-75
2022/03/26 08:38:17;;;;;;;40.00;25.03;;;11.40;99.90;;;;;;4932773;29;20182;-74
2022/03/26 08:40:42;;;;;;;36.27;24.17;;;11.50;99.90;;;;;;4919729;28;20653;-74
2022/03/26 08:43:08;;;;;;;34.63;22.80;;;11.40;99.90;;;;;;4935718;28;20320;-74
2022/03/26 08:45:37;;;;;;;37.47;22.77;;;11.30;99.90;;;;;;4917184;29;20292;-75
2022/03/26 08:48:03;;;;;;;29.10;18.97;;;11.30;99.90;;;;;;4948317;29;20182;-75
2022/03/26 08:50:29;;;;;;;27.97;17.73;;;11.40;99.90;;;;;;4917306;28;20186;-75
2022/03/26 08:52:55;;;;;;;29.60;20.07;;;11.40;99.90;;;;;;4935397;28;20189;-75
2022/03/26 08:55:20;;;;;;;29.07;17.67;;;11.60;99.90;;;;;;4911431;29;20209;-75
2022/03/26 08:57:46;;;;;;;31.87;18.40;;;11.50;99.90;;;;;;4918653;29;20687;-75
2022/03/26 09:00:14;;;;;;;23.40;14.70;;;11.40;99.90;;;;;;4917168;29;20539;-75
2022/03/26 09:02:40;;;;;;;29.20;19.63;;;11.40;99.90;;;;;;4919222;28;20206;-74
2022/03/26 09:05:06;;;;;;;29.10;19.27;;;11.40;99.90;;;;;;4935788;28;20224;-76
2022/03/26 09:07:33;;;;;;;30.13;18.80;;;11.50;99.90;;;;;;4916327;29;20185;-74
2022/03/26 09:09:59;;;;;;;26.13;17.90;;;11.60;99.90;;;;;;4930738;29;20174;-76
2022/03/26 09:12:24;;;;;;;31.83;18.03;;;11.70;99.90;;;;;;4915714;29;20230;-74
2022/03/26 09:14:50;;;;;;;25.37;17.70;;;11.80;99.90;;;;;;4932756;28;20218;-74
2022/03/26 09:17:16;;;;;;;28.33;17.40;;;11.80;99.90;;;;;;4941761;28;20179;-74
2022/03/26 09:19:45;;;;;;;27.73;17.90;;;12.00;99.90;;;;;;4958034;28;20186;-73
2022/03/26 09:22:10;;;;;;;31.20;18.27;;;12.30;99.90;;;;;;4959634;28;20187;-75
2022/03/26 09:24:36;;;;;;;24.47;16.20;;;12.40;99.90;;;;;;4942362;28;20653;-79
2022/03/26 09:27:02;;;;;;;23.80;14.40;;;12.50;99.90;;;;;;4922645;29;20267;-78
2022/03/26 09:29:28;;;;;;;20.53;12.67;;;12.60;99.90;;;;;;4917768;29;20619;-78
2022/03/26 09:31:55;;;;;;;18.67;11.87;;;12.70;99.90;;;;;;4904054;29;20284;-72
2022/03/26 09:34:21;;;;;;;16.30;11.20;;;12.80;99.90;;;;;;4905310;29;20189;-71
2022/03/26 09:36:47;;;;;;;19.03;9.93;;;12.80;99.90;;;;;;4905252;29;20676;-74
2022/03/26 09:39:12;;;;;;;15.13;9.73;;;12.80;99.90;;;;;;4903285;29;20184;-76
2022/03/26 09:41:39;;;;;;;13.37;9.60;;;12.70;99.90;;;;;;4935467;28;20263;-75
2022/03/26 09:44:06;;;;;;;14.30;10.00;;;12.60;99.90;;;;;;4957047;28;20219;-76
2022/03/26 09:46:35;;;;;;;14.43;9.53;;;12.60;99.90;;;;;;4940802;28;20211;-75
2022/03/26 09:49:03;;;;;;;16.90;11.03;;;12.60;99.90;;;;;;4956515;28;20191;-74
2022/03/26 09:51:29;;;;;;;16.97;10.07;;;12.70;99.90;;;;;;4957187;28;20176;-75
2022/03/26 09:54:08;;;;;;;13.53;9.27;;;12.80;99.90;;;;;;4949049;29;20194;-84
2022/03/26 09:56:34;;;;;;;14.47;10.07;;;13.10;99.90;;;;;;4932664;28;20616;-83
2022/03/26 09:59:00;;;;;;;16.80;10.20;;;13.20;99.90;;;;;;4959928;28;20275;-82
2022/03/26 10:01:27;;;;;;;16.10;9.80;;;13.20;99.90;;;;;;4945935;29;20184;-85
2022/03/26 10:04:41;;;;;;;15.30;10.50;;;13.20;99.90;;;;;;4967381;28;20184;-85
2022/03/26 10:07:08;;;;;;;15.80;9.70;;;13.00;99.90;;;;;;4959263;28;20276;-87
2022/03/26 10:09:47;;;;;;;16.60;10.53;;;13.00;99.90;;;;;;4940197;29;20610;-86
2022/03/26 10:12:27;;;;;;;19.07;11.00;;;13.00;99.90;;;;;;4945202;29;20248;-87
2022/03/26 10:15:11;;;;;;;13.00;9.10;;;13.10;99.90;;;;;;4912423;29;20204;-88
2022/03/26 10:17:40;;;;;;;18.83;10.77;;;13.10;99.90;;;;;;4941355;28;20172;-87
2022/03/26 10:20:10;;;;;;;15.97;9.53;;;13.00;99.90;;;;;;4965210;28;20176;-85
2022/03/26 10:22:50;;;;;;;14.57;10.47;;;13.00;99.90;;;;;;4937446;28;20208;-86
2022/03/26 10:25:25;;;;;;;17.37;10.37;;;13.00;99.90;;;;;;4951810;28;20246;-87
2022/03/26 10:27:56;;;;;;;18.10;11.20;;;13.00;99.90;;;;;;4967689;28;20191;-82
2022/03/26 10:33:20;;;;;;;18.77;11.13;;;12.90;99.90;;;;;;4982639;28;20187;-81
2022/03/26 10:36:00;;;;;;;16.40;11.17;;;13.00;99.90;;;;;;4941859;29;20735;-82
2022/03/26 10:42:01;;;;;;;21.60;12.07;;;12.80;99.90;;;;;;4976046;28;20187;-82
2022/03/26 10:44:39;;;;;;;18.97;12.30;;;12.70;99.90;;;;;;4952745;28;20184;-84
2022/03/26 10:47:15;;;;;;;20.00;12.47;;;12.80;99.90;;;;;;4969184;28;20222;-83
2022/03/26 10:49:41;;;;;;;19.63;13.53;;;12.80;99.90;;;;;;4959586;29;20180;-84
2022/03/26 10:52:17;;;;;;;19.77;13.00;;;12.70;99.90;;;;;;4949205;29;20270;-83
2022/03/26 10:54:46;;;;;;;20.23;13.37;;;12.70;99.90;;;;;;4949545;28;20203;-83
2022/03/26 10:57:12;;;;;;;18.77;12.80;;;12.80;99.90;;;;;;4938318;28;20180;-82
2022/03/26 11:00:03;;;;;;;18.63;13.20;;;12.70;99.90;;;;;;4957883;28;20176;-83
2022/03/26 11:02:40;;;;;;;19.43;13.10;;;12.50;99.90;;;;;;4963779;28;20192;-85
2022/03/26 11:05:15;;;;;;;17.37;12.40;;;12.50;99.90;;;;;;4940811;28;20218;-85
2022/03/26 11:07:42;;;;;;;17.20;12.27;;;12.30;99.90;;;;;;4941399;29;20211;-82
2022/03/26 11:10:12;;;;;;;18.43;13.13;;;12.30;99.90;;;;;;4952594;28;20180;-83
2022/03/26 11:12:47;;;;;;;17.43;12.30;;;12.30;99.90;;;;;;4935166;28;20184;-83
2022/03/26 11:15:19;;;;;;;20.10;12.60;;;12.40;99.90;;;;;;4968497;28;20195;-84
2022/03/26 11:18:02;;;;;;;16.03;11.87;;;12.50;99.90;;;;;;4939059;29;20556;-82
2022/03/26 11:21:21;;;;;;;16.03;10.80;;;13.00;99.90;;;;;;4948822;28;20654;-83
2022/03/26 11:24:02;;;;;;;16.53;11.07;;;13.20;99.90;;;;;;4956029;28;20207;-75
2022/03/26 11:26:53;;;;;;;18.03;12.33;;;13.00;99.90;;;;;;4962286;28;20310;-79
2022/03/26 11:29:32;;;;;;;16.97;12.07;;;13.00;99.90;;;;;;4965005;28;20513;-80
2022/03/26 11:32:17;;;;;;;14.63;11.37;;;13.50;99.90;;;;;;4936536;29;20173;-81
2022/03/26 11:34:43;;;;;;;12.50;9.73;;;13.20;99.90;;;;;;4931833;29;20204;-81
2022/03/26 11:37:25;;;;;;;12.50;9.43;;;13.30;99.90;;;;;;4938620;29;20217;-79
2022/03/26 11:39:57;;;;;;;14.10;10.07;;;13.30;99.90;;;;;;4927984;29;20176;-78
2022/03/26 11:42:37;;;;;;;15.43;10.73;;;13.10;99.90;;;;;;4942049;29;20189;-78
2022/03/26 11:50:46;;;;;;;13.27;10.63;;;13.90;99.90;;;;;;4943523;28;21245;-82
2022/03/26 11:53:33;;;;;;;12.23;8.40;;;13.80;99.90;;;;;;4934524;28;20199;-84
2022/03/26 11:56:01;;;;;;;11.83;9.60;;;13.50;99.90;;;;;;4936178;29;20204;-84
2022/03/26 11:58:28;;;;;;;12.47;9.80;;;13.60;99.90;;;;;;4949054;28;20652;-82
2022/03/26 12:00:55;;;;;;;11.93;8.83;;;13.50;99.90;;;;;;4933826;28;20531;-82
2022/03/26 12:03:26;;;;;;;11.97;9.10;;;13.40;99.90;;;;;;4948307;28;20184;-80
2022/03/26 12:08:58;;;;;;;14.57;9.67;;;13.40;99.90;;;;;;4959432;28;20195;-80
2022/03/26 12:11:31;;;;;;;15.27;10.27;;;13.30;99.90;;;;;;4935713;28;20180;-82
2022/03/26 12:14:05;;;;;;;12.63;9.73;;;13.10;99.90;;;;;;4964442;28;20187;-81
2022/03/26 12:16:49;;;;;;;15.13;10.23;;;13.00;99.90;;;;;;4933012;28;20606;-83
2022/03/26 12:19:42;;;;;;;11.90;9.87;;;12.80;99.90;;;;;;4951780;28;20280;-82
2022/03/26 12:22:34;;;;;;;13.43;10.13;;;12.70;99.90;;;;;;4949491;28;20180;-76
2022/03/26 12:25:01;;;;;;;11.70;9.80;;;12.80;99.90;;;;;;4944095;29;20217;-80
2022/03/26 12:27:27;;;;;;;13.50;9.90;;;12.90;99.90;;;;;;4942239;29;20629;-81
2022/03/26 12:29:57;;;;;;;12.77;9.70;;;12.80;99.90;;;;;;4958962;28;20179;-78
2022/03/26 12:32:34;;;;;;;16.20;9.73;;;12.80;99.90;;;;;;4943117;29;20195;-81
2022/03/26 12:35:05;;;;;;;17.00;9.63;;;12.90;99.90;;;;;;4947726;29;20207;-79
2022/03/26 12:37:33;;;;;;;12.80;9.63;;;12.80;99.90;;;;;;4956522;28;20208;-79
2022/03/26 12:39:59;;;;;;;15.83;10.47;;;12.80;99.90;;;;;;4972727;28;20176;-81
2022/03/26 12:42:26;;;;;;;12.90;9.40;;;12.70;99.90;;;;;;4966253;28;20230;-79
2022/03/26 12:44:53;;;;;;;12.10;9.17;;;12.90;99.90;;;;;;4947069;29;20200;-78
2022/03/26 12:47:26;;;;;;;14.30;9.13;;;12.90;99.90;;;;;;4950272;28;20187;-77
2022/03/26 12:49:57;;;;;;;15.17;9.70;;;12.80;99.90;;;;;;4941030;29;20211;-79